Terminal Aerodrome Forecast
Issued by NWS

Home | Current Version | Previous Version | Text Only | Print | Product List | Glossary Off
Versions: 1 2 3 4 5 6 7 8 9 10 11 12

000
FTUS43 KGRB 222300
TAFATW
TAF
KATW 222320Z 2300/2324 30009G17KT P6SM BKN040 BKN060
      TEMPO 2300/2304 6SM -SN
     FM231600 30011KT P6SM SCT050=

USA.gov is the U.S. government's official web portal to all federal, state and local government web resources and services.